Weather at Fairmont Municipal Airport

Public forecast

Using degrees Fahrenheit for public forecast. Weather courtesy of forecast.io.

Current aviation weather report (METAR) for Fairmont Municipal Airport

2024/02/23 03:56 (retrieved 35 minutes ago)

KFRM 230356Z AUTO 28011KT 10SM CLR 02/M02 A2986 RMK AO2 SLP124 T00171017 FZRANO

Closest aviation forecast (TAF) to Fairmont Municipal Airport

Closest forecast is Waynesville-St. Robert Regional Airport-Forney Field, 369.2 nm (683.7 km) SSE.

2024/02/22 22:57 (retrieved 6 hours ago)

TAF KTBN 222200Z 2222/2404 35010G18KT 9999 SCT040 BKN060 510005 QNH2965INS BECMG 2223/2224 35010KT 9999 FEW050 SCT120 QNH2968INS BECMG 2316/2317 31020G25KT 9999 SKC 510005 QNH2981INS BECMG 2323/2324 30012KT 9999 SKC QNH2985INS TX20/2222Z TN05/2311Z LAST NO AMDS AFT 2304 NEXT 2314